Yekaterinburg, Russia
Current Conditions -  °F | °C
As of 7:30 AM on Monday 22 Dec 2014 (Local Time) from USSS Reporting Station
Overcast Overcast  
Wind Chill: 22°   Ceiling: 3000
Heat Index: 32°   Visibility: 6mi
Dew Point: 27°   Wind: 13mph
Humidity: 80%   Direction: 240°WSW
Pressure: 29.8"   Gusts: NA
Location:  56.85°N, 60.6°E
Report Text: USSS 220230Z 24006MPS 9999 OVC030 00/M03 Q1009 7629//40 NOSIGRMK QFE736
Loading
Personal Weather Stations






























Interactive Weather Map New forecast layout! Learn more

10-Day Weather Forecast

Advertisements
Track Severe Weather on mobile